createdAt,value
2023-02-03T00:01:28.290Z,4.48
2023-02-03T00:03:56.287Z,4.22
2023-02-03T00:06:24.876Z,4.09
2023-02-03T00:08:56.510Z,3.99
2023-02-03T00:11:25.099Z,3.89
2023-02-03T00:13:53.075Z,3.80
2023-02-03T00:16:22.702Z,3.67
2023-02-03T00:18:50.711Z,3.58
2023-02-03T00:21:18.720Z,3.57
2023-02-03T00:23:46.812Z,3.61
2023-02-03T00:26:17.418Z,3.65
2023-02-03T00:28:45.771Z,3.69
2023-02-03T00:31:18.145Z,3.72
2023-02-03T00:33:47.820Z,3.77
2023-02-03T00:36:15.779Z,3.71
2023-02-03T00:38:43.788Z,3.63
2023-02-03T00:41:11.761Z,3.56
2023-02-03T00:43:39.737Z,3.49
2023-02-03T00:46:07.719Z,3.41
2023-02-03T00:48:35.787Z,3.33
2023-02-03T00:51:05.327Z,3.18
2023-02-03T00:53:33.488Z,3.03
2023-02-03T00:56:01.486Z,2.93
2023-02-03T00:58:29.561Z,2.89
2023-02-03T01:00:58.182Z,2.81
2023-02-03T01:03:26.378Z,2.70
2023-02-03T01:05:54.321Z,2.61
2023-02-03T01:08:23.762Z,2.59
2023-02-03T01:10:51.736Z,2.51
2023-02-03T01:13:19.768Z,2.46
2023-02-03T01:15:48.904Z,2.40
2023-02-03T01:18:16.946Z,2.42
2023-02-03T01:20:45.035Z,2.42
2023-02-03T01:23:12.996Z,2.45
2023-02-03T01:25:42.385Z,2.48
2023-02-03T01:28:10.491Z,2.53
2023-02-03T01:30:38.763Z,2.57
2023-02-03T01:33:07.414Z,2.59
2023-02-03T01:35:36.432Z,2.55
2023-02-03T01:38:04.398Z,2.50
2023-02-03T01:40:32.362Z,2.41
2023-02-03T01:43:01.735Z,2.42
2023-02-03T01:45:29.684Z,2.44
2023-02-03T01:48:01.220Z,2.43
2023-02-03T01:50:33.472Z,2.41
2023-02-03T01:53:04.249Z,2.33
2023-02-03T01:55:36.072Z,2.28
2023-02-03T01:58:11.525Z,2.29
2023-02-03T02:00:39.549Z,2.29
2023-02-03T02:03:09.015Z,2.39
2023-02-03T02:05:42.213Z,2.52
2023-02-03T02:08:10.774Z,2.52
2023-02-03T02:10:38.830Z,2.58
2023-02-03T02:13:11.910Z,2.64
2023-02-03T02:15:51.307Z,2.69
2023-02-03T02:18:29.880Z,2.77
2023-02-03T02:21:24.262Z,2.92
2023-02-03T02:24:20.169Z,3.10
2023-02-03T02:26:58.671Z,3.22
2023-02-03T02:30:02.030Z,3.22
2023-02-03T02:32:43.095Z,3.29
2023-02-03T02:35:19.090Z,3.28
2023-02-03T02:37:54.811Z,3.20
2023-02-03T02:40:30.665Z,3.12
2023-02-03T02:43:07.441Z,3.06
2023-02-03T02:45:42.538Z,3.04
2023-02-03T02:48:18.066Z,3.00
2023-02-03T02:50:48.209Z,3.03
2023-02-03T02:53:18.805Z,3.05
2023-02-03T02:55:48.057Z,3.06
2023-02-03T02:58:18.170Z,3.05
2023-02-03T03:00:46.929Z,3.06
2023-02-03T03:03:18.507Z,3.00
2023-02-03T03:05:52.374Z,2.95
2023-02-03T03:08:24.290Z,2.95
2023-02-03T03:10:55.004Z,2.99
2023-02-03T03:13:28.924Z,3.07
2023-02-03T03:15:59.903Z,3.16
2023-02-03T03:18:34.410Z,3.19
2023-02-03T03:21:06.445Z,3.07
2023-02-03T03:23:39.364Z,2.89
2023-02-03T03:26:13.913Z,2.79
2023-02-03T03:28:48.058Z,2.74
2023-02-03T03:31:17.291Z,2.75
2023-02-03T03:33:47.676Z,2.84
2023-02-03T03:36:23.505Z,2.93
2023-02-03T03:38:57.908Z,2.96
2023-02-03T03:41:36.595Z,2.93
2023-02-03T03:44:08.034Z,2.90
2023-02-03T03:46:42.708Z,2.86
2023-02-03T03:49:13.552Z,2.80
2023-02-03T03:51:47.573Z,2.78
2023-02-03T03:54:20.053Z,2.78
2023-02-03T03:56:56.131Z,2.76
2023-02-03T03:59:26.565Z,2.79
2023-02-03T04:01:55.176Z,2.79
2023-02-03T04:04:27.020Z,2.76
2023-02-03T04:06:55.874Z,2.69
2023-02-03T04:09:24.017Z,2.68
2023-02-03T04:12:06.022Z,2.66
2023-02-03T04:14:35.915Z,2.64
2023-02-03T04:17:03.890Z,2.59
2023-02-03T04:19:33.583Z,2.48
2023-02-03T04:22:01.550Z,2.41
2023-02-03T04:24:29.686Z,2.34
2023-02-03T04:26:57.672Z,2.31
2023-02-03T04:29:25.707Z,2.26
2023-02-03T04:31:53.853Z,2.29
2023-02-03T04:34:21.880Z,2.37
2023-02-03T04:36:51.221Z,2.47
2023-02-03T04:39:19.212Z,2.53
2023-02-03T04:41:47.165Z,2.51
2023-02-03T04:44:15.134Z,2.45
2023-02-03T04:46:43.091Z,2.34
2023-02-03T04:49:11.791Z,2.16
2023-02-03T04:51:40.041Z,2.01
2023-02-03T04:54:09.639Z,1.93
2023-02-03T04:56:37.736Z,1.92
2023-02-03T04:59:05.684Z,1.89
2023-02-03T05:01:33.656Z,1.84
2023-02-03T05:04:01.729Z,1.88
2023-02-03T05:06:32.119Z,1.96
2023-02-03T05:09:00.225Z,1.99
2023-02-03T05:11:30.112Z,1.93
2023-02-03T05:13:58.087Z,1.85
2023-02-03T05:16:26.593Z,1.77
2023-02-03T05:18:54.717Z,1.72
2023-02-03T05:21:22.744Z,1.64
2023-02-03T05:23:50.704Z,1.59
2023-02-03T05:26:18.741Z,1.51
2023-02-03T05:28:48.105Z,1.46
2023-02-03T05:31:16.278Z,1.40
2023-02-03T05:33:44.260Z,1.36
2023-02-03T05:36:12.316Z,1.31
2023-02-03T05:38:41.989Z,1.34
2023-02-03T05:41:28.358Z,1.35
2023-02-03T05:43:57.761Z,1.33
2023-02-03T05:46:25.893Z,1.34
2023-02-03T05:48:53.856Z,1.36
2023-02-03T05:51:21.928Z,1.34
2023-02-03T05:53:50.004Z,1.31
2023-02-03T05:56:18.065Z,1.27
2023-02-03T05:58:46.144Z,1.29
2023-02-03T06:01:15.515Z,1.31
2023-02-03T06:03:46.028Z,1.34
2023-02-03T06:06:14.923Z,1.31
2023-02-03T06:08:43.066Z,1.30
2023-02-03T06:11:11.885Z,1.37
2023-02-03T06:13:40.142Z,1.44
2023-02-03T06:16:08.368Z,1.50
2023-02-03T06:18:37.764Z,1.65
2023-02-03T06:21:06.126Z,1.70
2023-02-03T06:23:34.187Z,1.80
2023-02-03T06:26:02.199Z,1.93
2023-02-03T06:28:30.336Z,2.05
2023-02-03T06:30:58.378Z,2.12
2023-02-03T06:33:26.561Z,2.24
2023-02-03T06:35:56.510Z,2.35
2023-02-03T06:38:24.706Z,2.45
2023-02-03T06:40:52.915Z,2.53
2023-02-03T06:43:20.846Z,2.52
2023-02-03T06:45:48.931Z,2.54
2023-02-03T06:48:16.990Z,2.57
2023-02-03T06:50:48.537Z,2.63
2023-02-03T06:53:18.137Z,2.70
2023-02-03T06:55:47.966Z,2.71
2023-02-03T06:58:16.072Z,2.69
2023-02-03T07:00:44.055Z,2.70
2023-02-03T07:03:12.005Z,2.70
2023-02-03T07:05:40.897Z,2.69
2023-02-03T07:08:09.040Z,2.68
2023-02-03T07:10:38.435Z,2.66
2023-02-03T07:13:07.532Z,2.65
2023-02-03T07:15:35.985Z,2.67
2023-02-03T07:18:04.084Z,2.70
2023-02-03T07:20:33.053Z,2.76
2023-02-03T07:23:01.050Z,2.79
2023-02-03T07:25:29.102Z,2.80
2023-02-03T07:27:58.538Z,2.80
2023-02-03T07:30:26.890Z,2.84
2023-02-03T07:32:55.475Z,2.88
2023-02-03T07:35:23.461Z,2.91
2023-02-03T07:37:51.461Z,2.96
2023-02-03T07:40:19.735Z,3.02
2023-02-03T07:42:49.828Z,3.06
2023-02-03T07:45:20.342Z,3.01
2023-02-03T07:47:48.345Z,2.95
2023-02-03T07:50:16.570Z,2.93
2023-02-03T07:52:44.681Z,2.95
2023-02-03T07:55:12.679Z,2.90
2023-02-03T07:57:43.660Z,2.88
2023-02-03T08:00:14.331Z,2.93
2023-02-03T08:02:44.608Z,2.99
2023-02-03T08:05:13.713Z,3.03
2023-02-03T08:07:42.336Z,3.01
2023-02-03T08:10:13.276Z,3.00
2023-02-03T08:12:45.114Z,2.92
2023-02-03T08:15:14.122Z,2.90
2023-02-03T08:17:44.623Z,2.90
2023-02-03T08:20:13.751Z,2.96
2023-02-03T08:22:41.769Z,3.03
2023-02-03T08:25:10.430Z,2.98
2023-02-03T08:27:38.846Z,2.99
2023-02-03T08:30:08.624Z,2.96
2023-02-03T08:32:36.866Z,2.93
2023-02-03T08:35:07.173Z,2.86
2023-02-03T08:37:35.172Z,2.82
2023-02-03T08:40:03.286Z,2.85
2023-02-03T08:42:31.338Z,2.90
2023-02-03T08:44:59.688Z,2.95
2023-02-03T08:47:27.954Z,3.07
2023-02-03T08:49:55.987Z,3.20
2023-02-03T08:52:25.620Z,3.31
2023-02-03T08:54:53.742Z,3.41
2023-02-03T08:57:21.859Z,3.49
2023-02-03T08:59:51.248Z,3.54
2023-02-03T09:02:20.843Z,3.59
2023-02-03T09:04:50.092Z,3.57
2023-02-03T09:07:18.095Z,3.52
2023-02-03T09:09:47.723Z,3.42
2023-02-03T09:12:16.182Z,3.43
2023-02-03T09:14:44.552Z,3.41
2023-02-03T09:17:12.911Z,3.42
2023-02-03T09:19:41.034Z,3.44
2023-02-03T09:22:09.318Z,3.51
2023-02-03T09:24:37.662Z,3.63
2023-02-03T09:27:07.260Z,3.78
2023-02-03T09:29:35.490Z,3.92
2023-02-03T09:32:09.022Z,4.01
2023-02-03T09:34:37.231Z,4.07
2023-02-03T09:37:05.452Z,4.09
2023-02-03T09:39:33.489Z,4.05
2023-02-03T09:42:52.161Z,4.02
2023-02-03T09:45:25.794Z,4.08
2023-02-03T09:47:55.653Z,4.13
2023-02-03T09:50:26.691Z,4.19
2023-02-03T09:52:56.859Z,4.27
2023-02-03T09:55:35.179Z,4.35
2023-02-03T09:58:09.371Z,4.38
2023-02-03T10:00:41.192Z,4.43
2023-02-03T10:03:19.192Z,4.48
2023-02-03T10:06:04.626Z,4.49
2023-02-03T10:08:45.117Z,4.50
2023-02-03T10:11:28.250Z,4.49
2023-02-03T10:14:14.070Z,4.50
2023-02-03T10:16:56.090Z,4.48
2023-02-03T10:19:28.808Z,4.48
2023-02-03T10:22:00.124Z,4.49
2023-02-03T10:24:39.542Z,4.43
2023-02-03T10:27:15.072Z,4.42
2023-02-03T10:29:44.840Z,4.44
2023-02-03T10:32:14.132Z,4.42
2023-02-03T10:34:46.098Z,4.38
2023-02-03T10:37:23.632Z,4.35
2023-02-03T10:39:57.002Z,4.34
2023-02-03T10:42:25.118Z,4.39
2023-02-03T10:44:58.601Z,4.48
2023-02-03T10:47:34.330Z,4.57
2023-02-03T10:50:07.557Z,4.66
2023-02-03T10:52:37.593Z,4.76
2023-02-03T10:55:07.353Z,4.82
2023-02-03T10:57:39.286Z,4.88
2023-02-03T11:00:23.785Z,5.02
2023-02-03T11:03:06.806Z,5.31
2023-02-03T11:05:35.221Z,5.65
2023-02-03T11:08:03.721Z,6.09
2023-02-03T11:10:35.987Z,6.57
2023-02-03T11:13:19.372Z,7.08
2023-02-03T11:15:56.552Z,7.60
2023-02-03T11:18:46.075Z,8.03
2023-02-03T11:21:19.121Z,8.37
2023-02-03T11:23:55.864Z,8.68
2023-02-03T11:26:27.733Z,8.92
2023-02-03T11:28:59.492Z,9.09
2023-02-03T11:31:31.395Z,9.26
2023-02-03T11:34:02.053Z,9.40
2023-02-03T11:36:32.590Z,9.51
2023-02-03T11:39:19.967Z,9.60
2023-02-03T11:41:48.906Z,9.64
2023-02-03T11:44:20.869Z,9.66
2023-02-03T11:46:54.337Z,9.72
2023-02-03T11:49:50.884Z,9.74
2023-02-03T11:52:37.697Z,9.70
2023-02-03T11:55:17.591Z,9.54
2023-02-03T11:57:54.383Z,9.42
2023-02-03T12:00:33.664Z,9.25
2023-02-03T12:03:19.634Z,9.14
2023-02-03T12:06:03.223Z,9.07
2023-02-03T12:08:47.485Z,9.09
2023-02-03T12:11:25.820Z,9.10
2023-02-03T12:14:07.907Z,9.09
2023-02-03T12:16:57.248Z,9.06
2023-02-03T12:19:40.855Z,9.06
2023-02-03T12:22:17.506Z,9.04
2023-02-03T12:24:56.219Z,8.98
2023-02-03T12:27:36.028Z,8.93
2023-02-03T12:30:10.893Z,8.86
2023-02-03T12:32:46.446Z,8.81
2023-02-03T12:35:21.995Z,8.77
2023-02-03T12:37:56.306Z,8.75
2023-02-03T12:40:36.195Z,8.75
2023-02-03T12:43:19.302Z,8.74
2023-02-03T12:45:54.318Z,8.77
2023-02-03T12:48:27.350Z,8.79
2023-02-03T12:51:01.916Z,8.81
2023-02-03T12:53:35.091Z,8.82
2023-02-03T12:56:07.863Z,8.82
2023-02-03T12:58:40.974Z,8.86
2023-02-03T13:01:15.900Z,8.88
2023-02-03T13:03:50.161Z,8.91
2023-02-03T13:06:27.113Z,8.93
2023-02-03T13:09:02.106Z,8.98
2023-02-03T13:11:35.132Z,9.03
2023-02-03T13:14:09.498Z,9.07
2023-02-03T13:16:41.414Z,9.09
2023-02-03T13:19:18.125Z,9.11
2023-02-03T13:21:49.561Z,9.15
2023-02-03T13:24:18.364Z,9.20
2023-02-03T13:27:11.099Z,9.24
2023-02-03T13:30:06.198Z,9.28
2023-02-03T13:32:55.458Z,9.31
2023-02-03T13:35:39.511Z,9.33
2023-02-03T13:38:38.794Z,9.36
2023-02-03T13:41:12.550Z,9.38
2023-02-03T13:43:46.624Z,9.43
2023-02-03T13:46:23.119Z,9.44
2023-02-03T13:48:52.451Z,9.43
2023-02-03T13:51:24.127Z,9.46
2023-02-03T13:54:01.588Z,9.49
2023-02-03T13:56:30.041Z,9.54
2023-02-03T13:59:04.038Z,9.59
2023-02-03T14:01:35.935Z,9.65
2023-02-03T14:04:05.908Z,9.69
2023-02-03T14:07:00.019Z,9.69
2023-02-03T14:09:43.152Z,9.72
2023-02-03T14:12:20.807Z,9.76
2023-02-03T14:15:04.761Z,9.80
2023-02-03T14:18:02.466Z,9.76
2023-02-03T14:21:21.071Z,9.76
2023-02-03T14:24:00.000Z,9.78
2023-02-03T14:26:42.891Z,9.85
2023-02-03T14:29:24.285Z,9.89
2023-02-03T14:31:59.265Z,9.96
2023-02-03T14:34:36.577Z,10.03
2023-02-03T14:37:26.710Z,10.07
2023-02-03T14:40:11.568Z,10.10
2023-02-03T14:43:18.190Z,10.14
2023-02-03T14:46:13.965Z,10.19
2023-02-03T14:49:18.793Z,10.29
2023-02-03T14:52:05.773Z,10.34
2023-02-03T14:54:59.316Z,10.37
2023-02-03T14:57:39.627Z,10.39
2023-02-03T15:00:27.547Z,10.40
2023-02-03T15:03:27.985Z,10.48
2023-02-03T15:05:58.451Z,10.55
2023-02-03T15:08:42.432Z,10.57
2023-02-03T15:11:32.508Z,10.56
2023-02-03T15:14:19.966Z,10.55
2023-02-03T15:16:54.419Z,10.54
2023-02-03T15:19:25.496Z,10.58
2023-02-03T15:21:53.880Z,10.62
2023-02-03T15:24:24.290Z,10.62
2023-02-03T15:26:54.006Z,10.61
2023-02-03T15:29:27.129Z,10.50
2023-02-03T15:32:06.421Z,10.38
2023-02-03T15:34:40.584Z,10.27
2023-02-03T15:37:15.465Z,10.20
2023-02-03T15:39:53.989Z,10.10
2023-02-03T15:42:28.598Z,10.03
2023-02-03T15:45:02.362Z,9.96
2023-02-03T15:47:35.770Z,9.94
2023-02-03T15:50:16.918Z,9.84
2023-02-03T15:52:46.914Z,9.76
2023-02-03T15:55:21.682Z,9.71
2023-02-03T15:57:51.665Z,9.63
2023-02-03T16:00:32.118Z,9.57
2023-02-03T16:03:03.554Z,9.57
2023-02-03T16:05:33.685Z,9.51
2023-02-03T16:08:34.985Z,9.48
2023-02-03T16:11:03.278Z,9.45
2023-02-03T16:13:33.352Z,9.42
2023-02-03T16:16:08.291Z,9.40
2023-02-03T16:18:38.360Z,9.39
2023-02-03T16:21:07.164Z,9.35
2023-02-03T16:23:35.239Z,9.26
2023-02-03T16:26:09.024Z,9.20
2023-02-03T16:28:54.304Z,9.15
2023-02-03T16:31:40.335Z,9.09
2023-02-03T16:34:33.383Z,9.03
2023-02-03T16:37:19.457Z,9.06
2023-02-03T16:40:04.892Z,9.07
2023-02-03T16:42:57.472Z,9.06
2023-02-03T16:45:43.547Z,9.01
2023-02-03T16:48:30.564Z,8.93
2023-02-03T16:51:16.035Z,8.83
2023-02-03T16:53:45.609Z,8.76
2023-02-03T16:56:14.396Z,8.71
2023-02-03T16:58:42.508Z,8.67
2023-02-03T17:01:11.891Z,8.64
2023-02-03T17:03:40.273Z,8.64
2023-02-03T17:06:11.638Z,8.65
2023-02-03T17:08:41.252Z,8.62
2023-02-03T17:11:12.715Z,8.56
2023-02-03T17:13:40.740Z,8.58
2023-02-03T17:16:11.614Z,8.56
2023-02-03T17:18:40.576Z,8.54
2023-02-03T17:21:12.558Z,8.53
2023-02-03T17:23:41.224Z,8.50
2023-02-03T17:26:09.517Z,8.46
2023-02-03T17:28:39.879Z,8.42
2023-02-03T17:31:08.788Z,8.36
2023-02-03T17:33:36.964Z,8.31
2023-02-03T17:36:07.544Z,8.28
2023-02-03T17:55:17.032Z,7.97
2023-02-03T17:57:44.994Z,7.95
2023-02-03T18:00:13.816Z,7.89
2023-02-03T18:02:42.679Z,7.92
2023-02-03T18:05:11.017Z,7.93
2023-02-03T18:07:39.026Z,7.90
2023-02-03T18:10:07.432Z,7.87
2023-02-03T18:12:36.821Z,7.82
2023-02-03T18:15:05.082Z,7.81
2023-02-03T18:17:33.082Z,7.80
2023-02-03T18:20:02.544Z,7.74
2023-02-03T18:22:30.634Z,7.72
2023-02-03T18:24:58.824Z,7.71
2023-02-03T18:27:26.863Z,7.74
2023-02-03T18:29:56.315Z,7.74
2023-02-03T18:32:24.296Z,7.75
2023-02-03T18:34:52.613Z,7.75
2023-02-03T18:37:20.614Z,7.71
2023-02-03T18:39:49.222Z,7.71
2023-02-03T18:42:17.354Z,7.71
2023-02-03T18:44:45.378Z,7.73
2023-02-03T18:47:14.772Z,7.73
2023-02-03T18:49:42.869Z,7.70
2023-02-03T18:52:10.945Z,7.72
2023-02-03T18:54:39.003Z,7.77
2023-02-03T18:57:06.950Z,7.76
2023-02-03T18:59:35.160Z,7.71
2023-02-03T19:02:03.227Z,7.68
2023-02-03T19:04:32.823Z,7.65
2023-02-03T19:07:01.068Z,7.62
2023-02-03T19:09:29.115Z,7.63
2023-02-03T19:11:58.876Z,7.69
2023-02-03T19:14:28.458Z,7.79
2023-02-03T19:16:56.544Z,7.86
2023-02-03T19:19:24.580Z,7.94
2023-02-03T19:21:54.018Z,7.95
2023-02-03T19:24:22.036Z,7.98
2023-02-03T19:26:50.067Z,7.95
2023-02-03T19:29:18.221Z,7.94
2023-02-03T19:31:46.397Z,7.94
2023-02-03T19:34:15.979Z,7.88
2023-02-03T19:36:44.270Z,7.86
2023-02-03T19:39:13.893Z,7.85
2023-02-03T19:41:42.199Z,7.77
2023-02-03T19:44:10.309Z,7.69
2023-02-03T19:46:38.907Z,7.62
2023-02-03T19:49:10.998Z,7.60
2023-02-03T19:51:39.462Z,7.62
2023-02-03T19:54:07.592Z,7.66
2023-02-03T19:56:36.954Z,7.68
2023-02-03T19:59:05.383Z,7.72
2023-02-03T20:01:33.688Z,7.74
2023-02-03T20:04:02.022Z,7.74
2023-02-03T20:06:31.680Z,7.73
2023-02-03T20:09:00.282Z,7.70
2023-02-03T20:11:29.216Z,7.56
2023-02-03T20:13:58.665Z,7.44
2023-02-03T20:16:26.717Z,7.34
2023-02-03T20:18:54.752Z,7.26
2023-02-03T20:21:22.798Z,7.20
2023-02-03T20:23:50.862Z,7.19
2023-02-03T20:26:18.959Z,7.16
2023-02-03T20:28:47.631Z,7.15
2023-02-03T20:31:17.152Z,7.12
2023-02-03T20:33:45.228Z,7.08
2023-02-03T20:36:13.481Z,7.03
2023-02-03T20:38:41.444Z,6.94
2023-02-03T20:41:12.469Z,6.86
2023-02-03T20:43:40.478Z,6.82
2023-02-03T20:46:12.041Z,6.87
2023-02-03T20:48:41.735Z,6.94
2023-02-03T20:51:12.712Z,7.04
2023-02-03T20:53:41.526Z,7.13
2023-02-03T20:56:14.914Z,7.20
2023-02-03T20:58:44.370Z,7.19
2023-02-03T21:01:15.649Z,7.20
2023-02-03T21:04:02.729Z,7.23
2023-02-03T21:06:32.368Z,7.27
2023-02-03T21:09:09.328Z,7.23
2023-02-03T21:11:37.431Z,7.18
2023-02-03T21:14:17.478Z,7.07
2023-02-03T21:16:47.728Z,6.97
2023-02-03T21:19:26.991Z,6.73
2023-02-03T21:21:55.038Z,6.43
2023-02-03T21:24:29.156Z,6.15
2023-02-03T21:26:57.672Z,6.01
2023-02-03T21:29:27.811Z,5.91
2023-02-03T21:31:56.416Z,5.89
2023-02-03T21:34:31.798Z,5.83
2023-02-03T21:37:15.461Z,5.79
2023-02-03T21:39:43.488Z,5.82
2023-02-03T21:42:42.719Z,5.94
2023-02-03T21:45:36.794Z,6.09
2023-02-03T21:48:28.335Z,6.18
2023-02-03T21:51:00.872Z,6.27
2023-02-03T21:53:35.217Z,6.36
2023-02-03T21:56:18.207Z,6.43
2023-02-03T21:58:48.714Z,6.42
2023-02-03T22:01:20.189Z,6.33
2023-02-03T22:03:51.479Z,6.34
2023-02-03T22:06:27.090Z,6.39
2023-02-03T22:08:56.482Z,6.41
2023-02-03T22:11:26.251Z,6.39
2023-02-03T22:13:54.354Z,6.39
2023-02-03T22:16:22.727Z,6.39
2023-02-03T22:18:54.009Z,6.42
2023-02-03T22:21:22.498Z,6.43
2023-02-03T22:23:51.930Z,6.46
2023-02-03T22:26:20.646Z,6.49
2023-02-03T22:28:48.622Z,6.55
2023-02-03T22:31:16.754Z,6.46
2023-02-03T22:33:45.314Z,6.26
2023-02-03T22:36:14.526Z,6.13
2023-02-03T22:38:43.533Z,6.03
2023-02-03T22:41:13.384Z,5.90
2023-02-03T22:43:41.869Z,5.82
2023-02-03T22:46:10.251Z,5.78
2023-02-03T22:48:38.343Z,5.80
2023-02-03T22:51:06.478Z,5.86
2023-02-03T22:53:34.891Z,5.89
2023-02-03T22:56:03.250Z,5.68
2023-02-03T22:58:32.686Z,5.42
2023-02-03T23:01:00.692Z,5.24
2023-02-03T23:03:32.150Z,5.11
2023-02-03T23:06:00.477Z,5.04
2023-02-03T23:08:28.605Z,5.00
2023-02-03T23:10:57.067Z,5.00
2023-02-03T23:13:25.110Z,5.02
2023-02-03T23:15:54.725Z,5.07
2023-02-03T23:18:22.789Z,5.10
2023-02-03T23:20:50.768Z,5.16
2023-02-03T23:23:18.744Z,5.24
2023-02-03T23:25:46.754Z,5.37
2023-02-03T23:28:14.750Z,5.51
2023-02-03T23:30:42.821Z,5.48
2023-02-03T23:33:12.330Z,5.48
2023-02-03T23:35:45.469Z,5.48
2023-02-03T23:38:13.622Z,5.52
2023-02-03T23:40:41.684Z,5.63
2023-02-03T23:43:09.772Z,5.74
2023-02-03T23:45:37.729Z,5.86
2023-02-03T23:48:06.292Z,5.91
2023-02-03T23:50:35.690Z,5.94
2023-02-03T23:53:03.689Z,5.96
2023-02-03T23:55:31.908Z,5.96
2023-02-03T23:57:59.974Z,5.90
